Weather at Orlando International Airport

Public forecast

Using degrees Fahrenheit for public forecast. Weather courtesy of forecast.io.

Current aviation weather report (METAR) for Orlando International Airport

Retrieved 2021/07/28 13:53 UTC (45 minutes ago):

KMCO 281353Z 28005KT 10SM SCT017 BKN280 29/24 A3003 RMK AO2 SLP168 CB DSNT W T02940244

Aviation forecast (TAF) for Orlando International Airport

Retrieved 2021/07/28 12:22 UTC (2 hours ago):

TAF KMCO 281120Z 2812/2918 22004KT 5SM BR FEW005 SCT050 SCT250 FM281500 25007KT P6SM VCSH SCT030 SCT250 FM281800 24008KT P6SM VCTS SCT040CB BKN070 BKN250 TEMPO 2819/2822 3SM TSRA BKN030CB FM290000 27004KT P6SM FEW050 SCT250 FM291500 28006KT P6SM VCSH SCT030 SCT250